sensor_id;sensor_type;location;lat;lon;timestamp;P1;durP1;ratioP1;P2;durP2;ratioP2
73515;SDS011;61763;51.416;5.442;2023-08-06T00:00:05;4.45;;;2.20;;
73515;SDS011;61763;51.416;5.442;2023-08-06T00:02:31;5.68;;;2.10;;
73515;SDS011;61763;51.416;5.442;2023-08-06T00:04:57;5.18;;;2.78;;
73515;SDS011;61763;51.416;5.442;2023-08-06T00:07:23;4.55;;;1.70;;
73515;SDS011;61763;51.416;5.442;2023-08-06T00:09:48;5.63;;;1.83;;
73515;SDS011;61763;51.416;5.442;2023-08-06T00:12:14;4.43;;;2.10;;
73515;SDS011;61763;51.416;5.442;2023-08-06T00:14:39;6.03;;;1.55;;
73515;SDS011;61763;51.416;5.442;2023-08-06T00:17:04;4.57;;;1.20;;
73515;SDS011;61763;51.416;5.442;2023-08-06T00:19:30;3.70;;;2.55;;
73515;SDS011;61763;51.416;5.442;2023-08-06T00:21:56;3.63;;;1.77;;
73515;SDS011;61763;51.416;5.442;2023-08-06T00:24:22;6.40;;;2.42;;
73515;SDS011;61763;51.416;5.442;2023-08-06T00:26:47;5.57;;;1.67;;
73515;SDS011;61763;51.416;5.442;2023-08-06T00:29:13;4.47;;;2.45;;
73515;SDS011;61763;51.416;5.442;2023-08-06T00:31:38;4.03;;;2.28;;
73515;SDS011;61763;51.416;5.442;2023-08-06T00:34:03;4.65;;;2.60;;
73515;SDS011;61763;51.416;5.442;2023-08-06T00:36:29;5.53;;;1.30;;
73515;SDS011;61763;51.416;5.442;2023-08-06T00:38:54;4.68;;;2.17;;
73515;SDS011;61763;51.416;5.442;2023-08-06T00:41:20;5.70;;;2.35;;
73515;SDS011;61763;51.416;5.442;2023-08-06T00:43:46;5.43;;;1.83;;
73515;SDS011;61763;51.416;5.442;2023-08-06T00:46:11;5.75;;;3.08;;
73515;SDS011;61763;51.416;5.442;2023-08-06T00:48:37;5.28;;;2.47;;
73515;SDS011;61763;51.416;5.442;2023-08-06T00:51:02;3.95;;;1.35;;
73515;SDS011;61763;51.416;5.442;2023-08-06T00:53:28;6.05;;;2.72;;
73515;SDS011;61763;51.416;5.442;2023-08-06T00:55:53;3.60;;;1.60;;
73515;SDS011;61763;51.416;5.442;2023-08-06T00:58:19;4.25;;;2.50;;
73515;SDS011;61763;51.416;5.442;2023-08-06T01:00:45;6.57;;;1.55;;
73515;SDS011;61763;51.416;5.442;2023-08-06T01:03:10;5.45;;;2.28;;
73515;SDS011;61763;51.416;5.442;2023-08-06T01:05:36;4.45;;;1.63;;
73515;SDS011;61763;51.416;5.442;2023-08-06T01:13:19;5.22;;;1.42;;
73515;SDS011;61763;51.416;5.442;2023-08-06T01:15:53;4.07;;;1.40;;
73515;SDS011;61763;51.416;5.442;2023-08-06T01:18:24;3.50;;;1.30;;
73515;SDS011;61763;51.416;5.442;2023-08-06T01:20:50;4.22;;;1.27;;
73515;SDS011;61763;51.416;5.442;2023-08-06T01:23:15;5.47;;;1.20;;
73515;SDS011;61763;51.416;5.442;2023-08-06T01:25:44;3.90;;;1.02;;
73515;SDS011;61763;51.416;5.442;2023-08-06T01:28:40;3.85;;;1.30;;
73515;SDS011;61763;51.416;5.442;2023-08-06T01:31:18;7.88;;;2.50;;
73515;SDS011;61763;51.416;5.442;2023-08-06T01:33:47;5.30;;;2.17;;
73515;SDS011;61763;51.416;5.442;2023-08-06T01:36:17;5.78;;;1.50;;
73515;SDS011;61763;51.416;5.442;2023-08-06T01:38:44;3.95;;;2.20;;
73515;SDS011;61763;51.416;5.442;2023-08-06T01:41:09;6.70;;;1.65;;
73515;SDS011;61763;51.416;5.442;2023-08-06T01:43:35;4.88;;;1.50;;
73515;SDS011;61763;51.416;5.442;2023-08-06T01:46:00;4.47;;;2.17;;
73515;SDS011;61763;51.416;5.442;2023-08-06T01:48:25;3.85;;;1.00;;
73515;SDS011;61763;51.416;5.442;2023-08-06T01:50:52;6.55;;;2.20;;
73515;SDS011;61763;51.416;5.442;2023-08-06T01:53:18;3.83;;;1.45;;
73515;SDS011;61763;51.416;5.442;2023-08-06T01:55:47;5.60;;;1.20;;
73515;SDS011;61763;51.416;5.442;2023-08-06T01:58:15;7.38;;;1.92;;
73515;SDS011;61763;51.416;5.442;2023-08-06T02:00:40;7.80;;;1.25;;
73515;SDS011;61763;51.416;5.442;2023-08-06T02:03:06;5.95;;;2.08;;
73515;SDS011;61763;51.416;5.442;2023-08-06T02:05:31;4.75;;;1.00;;
73515;SDS011;61763;51.416;5.442;2023-08-06T02:07:58;7.28;;;2.33;;
73515;SDS011;61763;51.416;5.442;2023-08-06T02:10:23;6.53;;;1.30;;
73515;SDS011;61763;51.416;5.442;2023-08-06T02:12:49;4.72;;;1.75;;
73515;SDS011;61763;51.416;5.442;2023-08-06T02:15:14;4.97;;;1.17;;
73515;SDS011;61763;51.416;5.442;2023-08-06T02:17:40;6.47;;;2.38;;
73515;SDS011;61763;51.416;5.442;2023-08-06T02:20:05;5.95;;;1.25;;
73515;SDS011;61763;51.416;5.442;2023-08-06T02:22:31;7.00;;;1.17;;
73515;SDS011;61763;51.416;5.442;2023-08-06T02:24:56;7.30;;;2.20;;
73515;SDS011;61763;51.416;5.442;2023-08-06T02:27:22;8.27;;;2.17;;
73515;SDS011;61763;51.416;5.442;2023-08-06T02:29:47;5.38;;;2.22;;
73515;SDS011;61763;51.416;5.442;2023-08-06T02:32:12;6.18;;;2.33;;
73515;SDS011;61763;51.416;5.442;2023-08-06T02:34:38;3.75;;;2.25;;
73515;SDS011;61763;51.416;5.442;2023-08-06T02:37:03;7.05;;;2.08;;
73515;SDS011;61763;51.416;5.442;2023-08-06T02:39:29;4.53;;;1.88;;
73515;SDS011;61763;51.416;5.442;2023-08-06T02:41:54;4.50;;;1.10;;
73515;SDS011;61763;51.416;5.442;2023-08-06T02:44:19;5.57;;;2.00;;
73515;SDS011;61763;51.416;5.442;2023-08-06T02:46:45;5.53;;;1.60;;
73515;SDS011;61763;51.416;5.442;2023-08-06T02:49:10;6.50;;;1.73;;
73515;SDS011;61763;51.416;5.442;2023-08-06T02:51:36;4.40;;;0.90;;
73515;SDS011;61763;51.416;5.442;2023-08-06T02:54:01;4.25;;;1.48;;
73515;SDS011;61763;51.416;5.442;2023-08-06T02:56:26;7.07;;;1.75;;
73515;SDS011;61763;51.416;5.442;2023-08-06T02:58:52;6.20;;;1.92;;
73515;SDS011;61763;51.416;5.442;2023-08-06T03:01:17;9.70;;;2.55;;
73515;SDS011;61763;51.416;5.442;2023-08-06T03:03:43;6.22;;;2.38;;
73515;SDS011;61763;51.416;5.442;2023-08-06T03:06:08;6.55;;;1.75;;
73515;SDS011;61763;51.416;5.442;2023-08-06T03:08:34;5.40;;;2.45;;
73515;SDS011;61763;51.416;5.442;2023-08-06T03:11:00;6.65;;;2.13;;
73515;SDS011;61763;51.416;5.442;2023-08-06T03:13:25;9.13;;;1.90;;
73515;SDS011;61763;51.416;5.442;2023-08-06T03:18:20;10.45;;;1.88;;
73515;SDS011;61763;51.416;5.442;2023-08-06T03:20:46;6.57;;;1.90;;
73515;SDS011;61763;51.416;5.442;2023-08-06T03:23:12;6.35;;;2.65;;
73515;SDS011;61763;51.416;5.442;2023-08-06T03:25:37;5.65;;;2.10;;
73515;SDS011;61763;51.416;5.442;2023-08-06T03:28:03;7.43;;;3.17;;
73515;SDS011;61763;51.416;5.442;2023-08-06T03:30:28;5.63;;;2.22;;
73515;SDS011;61763;51.416;5.442;2023-08-06T03:32:54;5.55;;;2.13;;
73515;SDS011;61763;51.416;5.442;2023-08-06T03:35:19;6.90;;;3.13;;
73515;SDS011;61763;51.416;5.442;2023-08-06T03:37:45;6.80;;;3.90;;
73515;SDS011;61763;51.416;5.442;2023-08-06T03:40:11;7.60;;;2.65;;
73515;SDS011;61763;51.416;5.442;2023-08-06T03:42:36;7.30;;;3.65;;
73515;SDS011;61763;51.416;5.442;2023-08-06T03:45:01;10.13;;;3.00;;
73515;SDS011;61763;51.416;5.442;2023-08-06T03:47:28;8.55;;;3.33;;
73515;SDS011;61763;51.416;5.442;2023-08-06T03:49:53;6.28;;;2.35;;
73515;SDS011;61763;51.416;5.442;2023-08-06T03:52:18;6.35;;;2.47;;
73515;SDS011;61763;51.416;5.442;2023-08-06T03:54:44;7.13;;;3.63;;
73515;SDS011;61763;51.416;5.442;2023-08-06T03:57:09;6.85;;;2.38;;
73515;SDS011;61763;51.416;5.442;2023-08-06T03:59:35;7.13;;;3.08;;
73515;SDS011;61763;51.416;5.442;2023-08-06T04:02:01;8.93;;;3.25;;
73515;SDS011;61763;51.416;5.442;2023-08-06T04:04:26;7.20;;;2.55;;
73515;SDS011;61763;51.416;5.442;2023-08-06T04:06:51;5.60;;;1.85;;
73515;SDS011;61763;51.416;5.442;2023-08-06T04:09:17;5.43;;;2.17;;
73515;SDS011;61763;51.416;5.442;2023-08-06T04:11:42;5.05;;;3.05;;
73515;SDS011;61763;51.416;5.442;2023-08-06T04:14:07;7.22;;;2.63;;
73515;SDS011;61763;51.416;5.442;2023-08-06T04:16:33;6.43;;;2.80;;
73515;SDS011;61763;51.416;5.442;2023-08-06T04:18:58;5.88;;;2.83;;
73515;SDS011;61763;51.416;5.442;2023-08-06T04:21:24;6.40;;;3.40;;
73515;SDS011;61763;51.416;5.442;2023-08-06T04:23:49;8.85;;;3.10;;
73515;SDS011;61763;51.416;5.442;2023-08-06T04:26:14;7.82;;;3.28;;
73515;SDS011;61763;51.416;5.442;2023-08-06T04:28:40;6.68;;;2.38;;
73515;SDS011;61763;51.416;5.442;2023-08-06T04:31:05;8.35;;;3.25;;
73515;SDS011;61763;51.416;5.442;2023-08-06T04:33:32;6.93;;;2.42;;
73515;SDS011;61763;51.416;5.442;2023-08-06T04:35:57;3.97;;;1.73;;
73515;SDS011;61763;51.416;5.442;2023-08-06T04:38:23;5.97;;;1.80;;
73515;SDS011;61763;51.416;5.442;2023-08-06T04:40:50;5.03;;;1.90;;
73515;SDS011;61763;51.416;5.442;2023-08-06T04:43:15;4.38;;;2.72;;
73515;SDS011;61763;51.416;5.442;2023-08-06T04:45:47;7.07;;;3.25;;
73515;SDS011;61763;51.416;5.442;2023-08-06T04:48:17;9.35;;;2.35;;
73515;SDS011;61763;51.416;5.442;2023-08-06T04:50:43;6.35;;;3.40;;
73515;SDS011;61763;51.416;5.442;2023-08-06T04:53:09;6.65;;;3.17;;
73515;SDS011;61763;51.416;5.442;2023-08-06T04:55:34;6.50;;;3.75;;
73515;SDS011;61763;51.416;5.442;2023-08-06T04:58:00;5.55;;;2.22;;
73515;SDS011;61763;51.416;5.442;2023-08-06T05:00:25;5.05;;;3.08;;
73515;SDS011;61763;51.416;5.442;2023-08-06T05:02:51;8.60;;;3.95;;
73515;SDS011;61763;51.416;5.442;2023-08-06T05:05:17;6.18;;;3.47;;
73515;SDS011;61763;51.416;5.442;2023-08-06T05:07:42;7.10;;;2.47;;
73515;SDS011;61763;51.416;5.442;2023-08-06T05:10:08;7.95;;;3.10;;
73515;SDS011;61763;51.416;5.442;2023-08-06T05:12:33;6.35;;;3.55;;
73515;SDS011;61763;51.416;5.442;2023-08-06T05:14:59;6.78;;;3.67;;
73515;SDS011;61763;51.416;5.442;2023-08-06T05:17:25;4.10;;;1.92;;
73515;SDS011;61763;51.416;5.442;2023-08-06T05:19:51;7.00;;;3.47;;
73515;SDS011;61763;51.416;5.442;2023-08-06T05:22:17;6.65;;;2.17;;
73515;SDS011;61763;51.416;5.442;2023-08-06T05:24:42;8.55;;;2.97;;
73515;SDS011;61763;51.416;5.442;2023-08-06T05:27:07;4.60;;;2.17;;
73515;SDS011;61763;51.416;5.442;2023-08-06T05:29:34;7.85;;;3.28;;
73515;SDS011;61763;51.416;5.442;2023-08-06T05:31:59;7.30;;;2.50;;
73515;SDS011;61763;51.416;5.442;2023-08-06T05:34:25;5.00;;;1.95;;
73515;SDS011;61763;51.416;5.442;2023-08-06T05:36:50;4.95;;;2.80;;
73515;SDS011;61763;51.416;5.442;2023-08-06T05:39:15;5.85;;;3.10;;
73515;SDS011;61763;51.416;5.442;2023-08-06T05:41:41;7.60;;;3.80;;
73515;SDS011;61763;51.416;5.442;2023-08-06T05:44:06;5.70;;;3.00;;
73515;SDS011;61763;51.416;5.442;2023-08-06T05:46:32;5.03;;;2.40;;
73515;SDS011;61763;51.416;5.442;2023-08-06T05:48:57;10.05;;;4.47;;
73515;SDS011;61763;51.416;5.442;2023-08-06T05:51:22;5.85;;;2.58;;
73515;SDS011;61763;51.416;5.442;2023-08-06T05:53:48;6.13;;;2.72;;
73515;SDS011;61763;51.416;5.442;2023-08-06T05:58:40;6.82;;;2.50;;
73515;SDS011;61763;51.416;5.442;2023-08-06T06:01:06;9.38;;;3.65;;
73515;SDS011;61763;51.416;5.442;2023-08-06T06:03:31;5.85;;;2.50;;
73515;SDS011;61763;51.416;5.442;2023-08-06T06:05:56;5.45;;;3.58;;
73515;SDS011;61763;51.416;5.442;2023-08-06T06:08:22;6.10;;;2.45;;
73515;SDS011;61763;51.416;5.442;2023-08-06T06:10:48;4.90;;;2.10;;
73515;SDS011;61763;51.416;5.442;2023-08-06T06:13:14;8.15;;;2.58;;
73515;SDS011;61763;51.416;5.442;2023-08-06T06:15:41;4.75;;;2.15;;
73515;SDS011;61763;51.416;5.442;2023-08-06T06:18:06;7.30;;;2.25;;
73515;SDS011;61763;51.416;5.442;2023-08-06T06:20:32;5.03;;;3.22;;
73515;SDS011;61763;51.416;5.442;2023-08-06T06:22:58;3.90;;;2.13;;
73515;SDS011;61763;51.416;5.442;2023-08-06T06:25:23;5.70;;;2.03;;
73515;SDS011;61763;51.416;5.442;2023-08-06T06:27:49;4.45;;;3.58;;
73515;SDS011;61763;51.416;5.442;2023-08-06T06:30:14;6.13;;;2.63;;
73515;SDS011;61763;51.416;5.442;2023-08-06T06:32:40;6.22;;;2.30;;
73515;SDS011;61763;51.416;5.442;2023-08-06T06:35:05;7.35;;;3.90;;
73515;SDS011;61763;51.416;5.442;2023-08-06T06:37:31;4.95;;;2.50;;
73515;SDS011;61763;51.416;5.442;2023-08-06T06:39:57;6.15;;;2.42;;
73515;SDS011;61763;51.416;5.442;2023-08-06T06:42:22;6.10;;;2.45;;
73515;SDS011;61763;51.416;5.442;2023-08-06T06:44:48;5.70;;;2.15;;
73515;SDS011;61763;51.416;5.442;2023-08-06T06:47:13;5.32;;;2.58;;
73515;SDS011;61763;51.416;5.442;2023-08-06T06:49:39;3.88;;;1.52;;
73515;SDS011;61763;51.416;5.442;2023-08-06T06:52:04;6.03;;;2.05;;
73515;SDS011;61763;51.416;5.442;2023-08-06T06:54:30;1.95;;;1.25;;
73515;SDS011;61763;51.416;5.442;2023-08-06T06:56:55;2.13;;;0.68;;
73515;SDS011;61763;51.416;5.442;2023-08-06T06:59:21;2.90;;;1.75;;
73515;SDS011;61763;51.416;5.442;2023-08-06T07:01:46;2.25;;;1.85;;
73515;SDS011;61763;51.416;5.442;2023-08-06T07:04:11;2.38;;;1.10;;
73515;SDS011;61763;51.416;5.442;2023-08-06T07:06:37;2.92;;;0.82;;
73515;SDS011;61763;51.416;5.442;2023-08-06T07:09:02;3.55;;;1.27;;
73515;SDS011;61763;51.416;5.442;2023-08-06T07:11:28;2.75;;;1.08;;
73515;SDS011;61763;51.416;5.442;2023-08-06T07:13:57;3.08;;;2.50;;
73515;SDS011;61763;51.416;5.442;2023-08-06T07:16:25;2.45;;;0.93;;
73515;SDS011;61763;51.416;5.442;2023-08-06T07:18:51;2.67;;;1.20;;
73515;SDS011;61763;51.416;5.442;2023-08-06T07:21:18;3.83;;;1.45;;
73515;SDS011;61763;51.416;5.442;2023-08-06T07:23:43;4.05;;;2.15;;
73515;SDS011;61763;51.416;5.442;2023-08-06T07:26:08;5.03;;;2.03;;
73515;SDS011;61763;51.416;5.442;2023-08-06T07:28:34;4.47;;;3.03;;
73515;SDS011;61763;51.416;5.442;2023-08-06T07:30:59;3.30;;;2.13;;
73515;SDS011;61763;51.416;5.442;2023-08-06T07:33:25;2.83;;;1.85;;
73515;SDS011;61763;51.416;5.442;2023-08-06T07:35:51;3.58;;;1.67;;
73515;SDS011;61763;51.416;5.442;2023-08-06T07:38:17;3.42;;;2.20;;
73515;SDS011;61763;51.416;5.442;2023-08-06T07:40:42;5.25;;;2.78;;
73515;SDS011;61763;51.416;5.442;2023-08-06T07:43:07;4.97;;;3.55;;
73515;SDS011;61763;51.416;5.442;2023-08-06T07:45:36;6.03;;;3.55;;
73515;SDS011;61763;51.416;5.442;2023-08-06T07:48:02;6.07;;;3.33;;
73515;SDS011;61763;51.416;5.442;2023-08-06T07:50:28;3.58;;;1.88;;
73515;SDS011;61763;51.416;5.442;2023-08-06T07:52:54;4.63;;;2.28;;
73515;SDS011;61763;51.416;5.442;2023-08-06T07:55:19;6.15;;;4.10;;
73515;SDS011;61763;51.416;5.442;2023-08-06T07:57:44;6.80;;;4.07;;
73515;SDS011;61763;51.416;5.442;2023-08-06T08:00:10;7.57;;;3.65;;
73515;SDS011;61763;51.416;5.442;2023-08-06T08:02:35;7.45;;;2.60;;
73515;SDS011;61763;51.416;5.442;2023-08-06T08:05:01;4.68;;;2.25;;
73515;SDS011;61763;51.416;5.442;2023-08-06T08:07:26;5.47;;;2.78;;
73515;SDS011;61763;51.416;5.442;2023-08-06T08:09:54;6.07;;;3.83;;
73515;SDS011;61763;51.416;5.442;2023-08-06T08:12:19;6.68;;;3.80;;
73515;SDS011;61763;51.416;5.442;2023-08-06T08:14:44;5.53;;;2.33;;
73515;SDS011;61763;51.416;5.442;2023-08-06T08:17:10;5.63;;;2.50;;
73515;SDS011;61763;51.416;5.442;2023-08-06T08:19:36;5.53;;;2.40;;
73515;SDS011;61763;51.416;5.442;2023-08-06T08:22:02;5.22;;;3.20;;
73515;SDS011;61763;51.416;5.442;2023-08-06T08:24:28;6.05;;;3.03;;
73515;SDS011;61763;51.416;5.442;2023-08-06T08:26:55;4.60;;;1.63;;
73515;SDS011;61763;51.416;5.442;2023-08-06T08:29:21;5.32;;;3.15;;
73515;SDS011;61763;51.416;5.442;2023-08-06T08:31:47;6.50;;;1.88;;
73515;SDS011;61763;51.416;5.442;2023-08-06T08:34:15;6.38;;;2.45;;
73515;SDS011;61763;51.416;5.442;2023-08-06T08:36:41;6.40;;;2.10;;
73515;SDS011;61763;51.416;5.442;2023-08-06T08:39:06;4.47;;;2.17;;
73515;SDS011;61763;51.416;5.442;2023-08-06T08:41:33;5.65;;;1.25;;
73515;SDS011;61763;51.416;5.442;2023-08-06T08:43:59;5.85;;;1.48;;
73515;SDS011;61763;51.416;5.442;2023-08-06T08:46:31;7.55;;;1.85;;
73515;SDS011;61763;51.416;5.442;2023-08-06T08:48:58;4.38;;;2.28;;
73515;SDS011;61763;51.416;5.442;2023-08-06T08:51:25;4.82;;;2.33;;
73515;SDS011;61763;51.416;5.442;2023-08-06T08:56:18;5.32;;;1.83;;
73515;SDS011;61763;51.416;5.442;2023-08-06T08:58:44;5.28;;;1.20;;
73515;SDS011;61763;51.416;5.442;2023-08-06T09:01:10;7.07;;;1.55;;
73515;SDS011;61763;51.416;5.442;2023-08-06T09:03:36;4.95;;;1.48;;
73515;SDS011;61763;51.416;5.442;2023-08-06T09:06:02;8.85;;;2.55;;
73515;SDS011;61763;51.416;5.442;2023-08-06T09:08:30;4.35;;;1.08;;
73515;SDS011;61763;51.416;5.442;2023-08-06T09:13:26;5.65;;;2.53;;
73515;SDS011;61763;51.416;5.442;2023-08-06T09:15:52;4.68;;;1.30;;
73515;SDS011;61763;51.416;5.442;2023-08-06T09:18:24;6.10;;;2.47;;
73515;SDS011;61763;51.416;5.442;2023-08-06T09:20:54;6.10;;;1.73;;
73515;SDS011;61763;51.416;5.442;2023-08-06T09:23:19;7.88;;;2.28;;
73515;SDS011;61763;51.416;5.442;2023-08-06T09:25:45;5.15;;;2.63;;
73515;SDS011;61763;51.416;5.442;2023-08-06T09:28:10;8.93;;;2.25;;
73515;SDS011;61763;51.416;5.442;2023-08-06T09:30:36;6.53;;;2.13;;
73515;SDS011;61763;51.416;5.442;2023-08-06T09:33:03;3.60;;;1.20;;
73515;SDS011;61763;51.416;5.442;2023-08-06T09:35:29;6.57;;;1.15;;
73515;SDS011;61763;51.416;5.442;2023-08-06T09:37:55;4.15;;;1.02;;
73515;SDS011;61763;51.416;5.442;2023-08-06T09:40:31;10.45;;;1.20;;
73515;SDS011;61763;51.416;5.442;2023-08-06T09:42:57;4.50;;;1.23;;
73515;SDS011;61763;51.416;5.442;2023-08-06T09:45:57;3.35;;;0.90;;
73515;SDS011;61763;51.416;5.442;2023-08-06T09:50:41;5.45;;;1.48;;
73515;SDS011;61763;51.416;5.442;2023-08-06T09:53:07;6.32;;;2.13;;
73515;SDS011;61763;51.416;5.442;2023-08-06T09:55:33;8.50;;;1.20;;
73515;SDS011;61763;51.416;5.442;2023-08-06T09:57:59;4.28;;;1.65;;
73515;SDS011;61763;51.416;5.442;2023-08-06T10:00:25;4.03;;;1.13;;
73515;SDS011;61763;51.416;5.442;2023-08-06T10:02:52;4.78;;;2.10;;
73515;SDS011;61763;51.416;5.442;2023-08-06T10:05:20;7.78;;;1.92;;
73515;SDS011;61763;51.416;5.442;2023-08-06T10:07:47;4.70;;;1.85;;
73515;SDS011;61763;51.416;5.442;2023-08-06T10:10:14;7.20;;;2.28;;
73515;SDS011;61763;51.416;5.442;2023-08-06T10:12:40;9.30;;;2.40;;
73515;SDS011;61763;51.416;5.442;2023-08-06T10:15:11;6.25;;;1.90;;
73515;SDS011;61763;51.416;5.442;2023-08-06T10:17:39;3.58;;;1.00;;
73515;SDS011;61763;51.416;5.442;2023-08-06T10:20:07;5.15;;;1.63;;
73515;SDS011;61763;51.416;5.442;2023-08-06T10:22:33;5.38;;;2.05;;
73515;SDS011;61763;51.416;5.442;2023-08-06T10:24:59;8.13;;;1.42;;
73515;SDS011;61763;51.416;5.442;2023-08-06T10:30:31;5.30;;;0.95;;
73515;SDS011;61763;51.416;5.442;2023-08-06T10:33:01;7.30;;;2.22;;
73515;SDS011;61763;51.416;5.442;2023-08-06T10:38:03;10.75;;;2.38;;
73515;SDS011;61763;51.416;5.442;2023-08-06T10:40:31;6.05;;;2.13;;
73515;SDS011;61763;51.416;5.442;2023-08-06T10:43:03;11.23;;;2.08;;
73515;SDS011;61763;51.416;5.442;2023-08-06T10:45:33;8.68;;;2.20;;
73515;SDS011;61763;51.416;5.442;2023-08-06T10:48:01;5.30;;;1.30;;
73515;SDS011;61763;51.416;5.442;2023-08-06T10:50:27;7.20;;;1.33;;
73515;SDS011;61763;51.416;5.442;2023-08-06T10:52:52;8.35;;;1.73;;
73515;SDS011;61763;51.416;5.442;2023-08-06T10:55:24;8.70;;;2.20;;
73515;SDS011;61763;51.416;5.442;2023-08-06T10:57:54;6.55;;;2.35;;
73515;SDS011;61763;51.416;5.442;2023-08-06T11:00:21;4.40;;;1.88;;
73515;SDS011;61763;51.416;5.442;2023-08-06T11:02:48;6.90;;;1.23;;
73515;SDS011;61763;51.416;5.442;2023-08-06T11:05:15;5.78;;;1.30;;
73515;SDS011;61763;51.416;5.442;2023-08-06T11:07:41;4.38;;;1.73;;
73515;SDS011;61763;51.416;5.442;2023-08-06T11:10:07;5.68;;;1.23;;
73515;SDS011;61763;51.416;5.442;2023-08-06T11:12:34;7.15;;;1.40;;
73515;SDS011;61763;51.416;5.442;2023-08-06T11:15:01;4.53;;;0.90;;
73515;SDS011;61763;51.416;5.442;2023-08-06T11:17:27;9.30;;;1.90;;
73515;SDS011;61763;51.416;5.442;2023-08-06T11:19:53;6.97;;;0.80;;
73515;SDS011;61763;51.416;5.442;2023-08-06T11:22:20;7.78;;;1.88;;
73515;SDS011;61763;51.416;5.442;2023-08-06T11:24:46;7.43;;;1.30;;
73515;SDS011;61763;51.416;5.442;2023-08-06T11:27:12;7.75;;;2.13;;
73515;SDS011;61763;51.416;5.442;2023-08-06T11:29:39;3.97;;;0.90;;
73515;SDS011;61763;51.416;5.442;2023-08-06T11:32:05;7.00;;;1.13;;
73515;SDS011;61763;51.416;5.442;2023-08-06T11:34:31;6.07;;;1.27;;
73515;SDS011;61763;51.416;5.442;2023-08-06T11:36:56;4.75;;;1.30;;
73515;SDS011;61763;51.416;5.442;2023-08-06T11:39:22;7.97;;;2.03;;
73515;SDS011;61763;51.416;5.442;2023-08-06T11:41:47;3.80;;;0.90;;
73515;SDS011;61763;51.416;5.442;2023-08-06T11:44:13;5.97;;;1.35;;
73515;SDS011;61763;51.416;5.442;2023-08-06T11:49:17;6.82;;;2.22;;
73515;SDS011;61763;51.416;5.442;2023-08-06T11:51:46;6.63;;;0.95;;
73515;SDS011;61763;51.416;5.442;2023-08-06T11:54:12;4.60;;;1.10;;
73515;SDS011;61763;51.416;5.442;2023-08-06T11:56:37;7.35;;;2.15;;
73515;SDS011;61763;51.416;5.442;2023-08-06T11:59:03;8.77;;;2.35;;
73515;SDS011;61763;51.416;5.442;2023-08-06T12:01:29;4.53;;;1.00;;
73515;SDS011;61763;51.416;5.442;2023-08-06T12:04:00;3.70;;;0.70;;
73515;SDS011;61763;51.416;5.442;2023-08-06T12:06:28;5.70;;;1.00;;
73515;SDS011;61763;51.416;5.442;2023-08-06T12:08:54;3.90;;;0.95;;
73515;SDS011;61763;51.416;5.442;2023-08-06T12:11:22;5.30;;;2.03;;
73515;SDS011;61763;51.416;5.442;2023-08-06T12:13:52;2.70;;;0.93;;
73515;SDS011;61763;51.416;5.442;2023-08-06T12:16:17;3.50;;;1.08;;
73515;SDS011;61763;51.416;5.442;2023-08-06T12:18:44;3.00;;;0.80;;
73515;SDS011;61763;51.416;5.442;2023-08-06T12:21:11;7.05;;;1.00;;
73515;SDS011;61763;51.416;5.442;2023-08-06T12:23:36;3.80;;;1.70;;
73515;SDS011;61763;51.416;5.442;2023-08-06T12:26:01;5.68;;;2.13;;
73515;SDS011;61763;51.416;5.442;2023-08-06T12:28:27;4.07;;;0.77;;
73515;SDS011;61763;51.416;5.442;2023-08-06T12:30:52;2.70;;;0.98;;
73515;SDS011;61763;51.416;5.442;2023-08-06T12:33:20;2.67;;;1.13;;
73515;SDS011;61763;51.416;5.442;2023-08-06T12:35:45;3.78;;;1.08;;
73515;SDS011;61763;51.416;5.442;2023-08-06T12:38:11;2.95;;;1.55;;
73515;SDS011;61763;51.416;5.442;2023-08-06T12:40:36;4.13;;;1.40;;
73515;SDS011;61763;51.416;5.442;2023-08-06T12:43:01;6.70;;;1.77;;
73515;SDS011;61763;51.416;5.442;2023-08-06T12:45:27;4.60;;;1.35;;
73515;SDS011;61763;51.416;5.442;2023-08-06T12:47:52;2.72;;;1.30;;
73515;SDS011;61763;51.416;5.442;2023-08-06T12:50:18;4.03;;;0.73;;
73515;SDS011;61763;51.416;5.442;2023-08-06T12:52:44;3.47;;;0.35;;
73515;SDS011;61763;51.416;5.442;2023-08-06T12:55:09;3.60;;;1.33;;
73515;SDS011;61763;51.416;5.442;2023-08-06T12:57:34;3.35;;;1.00;;
73515;SDS011;61763;51.416;5.442;2023-08-06T13:00:00;2.67;;;0.40;;
73515;SDS011;61763;51.416;5.442;2023-08-06T13:02:25;7.07;;;1.08;;
73515;SDS011;61763;51.416;5.442;2023-08-06T13:04:54;2.17;;;0.93;;
73515;SDS011;61763;51.416;5.442;2023-08-06T13:07:20;4.25;;;0.98;;
73515;SDS011;61763;51.416;5.442;2023-08-06T13:09:45;4.32;;;0.80;;
73515;SDS011;61763;51.416;5.442;2023-08-06T13:12:10;4.25;;;0.75;;
73515;SDS011;61763;51.416;5.442;2023-08-06T13:14:36;2.75;;;0.82;;
73515;SDS011;61763;51.416;5.442;2023-08-06T13:17:01;4.60;;;0.60;;
73515;SDS011;61763;51.416;5.442;2023-08-06T13:19:27;4.65;;;0.38;;
73515;SDS011;61763;51.416;5.442;2023-08-06T13:22:00;3.47;;;0.20;;
73515;SDS011;61763;51.416;5.442;2023-08-06T13:24:28;2.13;;;0.35;;
73515;SDS011;61763;51.416;5.442;2023-08-06T13:26:53;10.70;;;1.30;;
73515;SDS011;61763;51.416;5.442;2023-08-06T13:29:19;2.40;;;0.20;;
73515;SDS011;61763;51.416;5.442;2023-08-06T13:31:45;4.70;;;1.10;;
73515;SDS011;61763;51.416;5.442;2023-08-06T13:34:10;4.78;;;1.02;;
73515;SDS011;61763;51.416;5.442;2023-08-06T13:36:36;3.72;;;1.70;;
73515;SDS011;61763;51.416;5.442;2023-08-06T13:39:01;4.97;;;1.35;;
73515;SDS011;61763;51.416;5.442;2023-08-06T13:41:28;6.03;;;0.60;;
73515;SDS011;61763;51.416;5.442;2023-08-06T13:43:54;5.00;;;0.95;;
73515;SDS011;61763;51.416;5.442;2023-08-06T13:46:19;4.10;;;0.30;;
73515;SDS011;61763;51.416;5.442;2023-08-06T13:48:45;3.33;;;1.23;;
73515;SDS011;61763;51.416;5.442;2023-08-06T13:51:11;4.32;;;0.80;;
73515;SDS011;61763;51.416;5.442;2023-08-06T13:53:38;2.70;;;0.30;;
73515;SDS011;61763;51.416;5.442;2023-08-06T13:56:06;4.80;;;0.55;;
73515;SDS011;61763;51.416;5.442;2023-08-06T13:58:32;3.88;;;0.30;;
73515;SDS011;61763;51.416;5.442;2023-08-06T14:00:58;3.35;;;0.98;;
73515;SDS011;61763;51.416;5.442;2023-08-06T14:03:23;3.58;;;0.40;;
73515;SDS011;61763;51.416;5.442;2023-08-06T14:05:49;3.17;;;1.00;;
73515;SDS011;61763;51.416;5.442;2023-08-06T14:08:15;2.40;;;0.25;;
73515;SDS011;61763;51.416;5.442;2023-08-06T14:10:43;2.58;;;0.40;;
73515;SDS011;61763;51.416;5.442;2023-08-06T14:13:08;3.38;;;1.25;;
73515;SDS011;61763;51.416;5.442;2023-08-06T14:15:33;2.05;;;0.85;;
73515;SDS011;61763;51.416;5.442;2023-08-06T14:17:59;1.88;;;0.50;;
73515;SDS011;61763;51.416;5.442;2023-08-06T14:20:24;3.80;;;0.85;;
73515;SDS011;61763;51.416;5.442;2023-08-06T14:22:49;3.28;;;0.25;;
73515;SDS011;61763;51.416;5.442;2023-08-06T14:25:15;4.07;;;1.35;;
73515;SDS011;61763;51.416;5.442;2023-08-06T14:27:40;4.50;;;2.22;;
73515;SDS011;61763;51.416;5.442;2023-08-06T14:30:06;4.00;;;0.55;;
73515;SDS011;61763;51.416;5.442;2023-08-06T14:32:32;1.75;;;0.38;;
73515;SDS011;61763;51.416;5.442;2023-08-06T14:34:58;6.32;;;1.67;;
73515;SDS011;61763;51.416;5.442;2023-08-06T14:37:24;3.42;;;1.20;;
73515;SDS011;61763;51.416;5.442;2023-08-06T14:39:50;2.75;;;1.25;;
73515;SDS011;61763;51.416;5.442;2023-08-06T14:42:15;5.00;;;0.82;;
73515;SDS011;61763;51.416;5.442;2023-08-06T14:44:41;2.60;;;0.82;;
73515;SDS011;61763;51.416;5.442;2023-08-06T14:47:06;4.63;;;1.00;;
73515;SDS011;61763;51.416;5.442;2023-08-06T14:49:32;4.43;;;1.05;;
73515;SDS011;61763;51.416;5.442;2023-08-06T14:51:57;4.22;;;1.42;;
73515;SDS011;61763;51.416;5.442;2023-08-06T14:54:25;5.07;;;0.93;;
73515;SDS011;61763;51.416;5.442;2023-08-06T14:56:51;2.88;;;0.88;;
73515;SDS011;61763;51.416;5.442;2023-08-06T14:59:16;3.88;;;1.02;;
73515;SDS011;61763;51.416;5.442;2023-08-06T15:01:42;3.75;;;1.15;;
73515;SDS011;61763;51.416;5.442;2023-08-06T15:04:07;1.83;;;0.70;;
73515;SDS011;61763;51.416;5.442;2023-08-06T15:06:32;2.97;;;1.05;;